sensor_id;sensor_type;location;lat;lon;timestamp;pressure;altitude;pressure_sealevel;temperature
65569;BMP180;52211;50.154;8.682;2023-03-23T00:01:35;99192.00;;;20.00
65569;BMP180;52211;50.154;8.682;2023-03-23T00:04:07;99202.00;;;20.00
65569;BMP180;52211;50.154;8.682;2023-03-23T00:06:32;99195.00;;;19.90
65569;BMP180;52211;50.154;8.682;2023-03-23T00:09:02;99199.00;;;19.90
65569;BMP180;52211;50.154;8.682;2023-03-23T00:11:32;99198.00;;;19.90
65569;BMP180;52211;50.154;8.682;2023-03-23T00:14:00;99202.00;;;19.90
65569;BMP180;52211;50.154;8.682;2023-03-23T00:16:32;99187.00;;;19.90
65569;BMP180;52211;50.154;8.682;2023-03-23T00:19:11;99185.00;;;19.90
65569;BMP180;52211;50.154;8.682;2023-03-23T00:21:47;99192.00;;;19.90
65569;BMP180;52211;50.154;8.682;2023-03-23T00:24:16;99191.00;;;19.90
65569;BMP180;52211;50.154;8.682;2023-03-23T00:26:48;99188.00;;;19.90
65569;BMP180;52211;50.154;8.682;2023-03-23T00:29:22;99185.00;;;19.90
65569;BMP180;52211;50.154;8.682;2023-03-23T00:31:51;99186.00;;;19.90
65569;BMP180;52211;50.154;8.682;2023-03-23T00:34:22;99195.00;;;19.90
65569;BMP180;52211;50.154;8.682;2023-03-23T00:36:54;99193.00;;;19.90
65569;BMP180;52211;50.154;8.682;2023-03-23T00:39:29;99179.00;;;19.90
65569;BMP180;52211;50.154;8.682;2023-03-23T00:41:55;99188.00;;;19.90
65569;BMP180;52211;50.154;8.682;2023-03-23T00:44:33;99188.00;;;19.80
65569;BMP180;52211;50.154;8.682;2023-03-23T00:47:07;99178.00;;;19.80
65569;BMP180;52211;50.154;8.682;2023-03-23T00:49:38;99173.00;;;19.80
65569;BMP180;52211;50.154;8.682;2023-03-23T00:52:09;99177.00;;;19.80
65569;BMP180;52211;50.154;8.682;2023-03-23T00:54:36;99164.00;;;19.80
65569;BMP180;52211;50.154;8.682;2023-03-23T00:57:04;99173.00;;;19.80
65569;BMP180;52211;50.154;8.682;2023-03-23T00:59:32;99166.00;;;19.80
65569;BMP180;52211;50.154;8.682;2023-03-23T01:01:58;99165.00;;;19.80
65569;BMP180;52211;50.154;8.682;2023-03-23T01:04:26;99164.00;;;19.80
65569;BMP180;52211;50.154;8.682;2023-03-23T01:06:56;99169.00;;;19.80
65569;BMP180;52211;50.154;8.682;2023-03-23T01:09:23;99169.00;;;19.80
65569;BMP180;52211;50.154;8.682;2023-03-23T01:11:55;99172.00;;;19.80
65569;BMP180;52211;50.154;8.682;2023-03-23T01:14:24;99171.00;;;19.90
65569;BMP180;52211;50.154;8.682;2023-03-23T01:16:53;99164.00;;;19.90
65569;BMP180;52211;50.154;8.682;2023-03-23T01:19:19;99152.00;;;19.90
65569;BMP180;52211;50.154;8.682;2023-03-23T01:21:45;99151.00;;;19.90
65569;BMP180;52211;50.154;8.682;2023-03-23T01:24:15;99154.00;;;19.90
65569;BMP180;52211;50.154;8.682;2023-03-23T01:26:46;99149.00;;;19.80
65569;BMP180;52211;50.154;8.682;2023-03-23T01:29:13;99154.00;;;19.80
65569;BMP180;52211;50.154;8.682;2023-03-23T01:31:39;99144.00;;;19.80
65569;BMP180;52211;50.154;8.682;2023-03-23T01:34:08;99157.00;;;19.80
65569;BMP180;52211;50.154;8.682;2023-03-23T01:36:38;99165.00;;;19.80
65569;BMP180;52211;50.154;8.682;2023-03-23T01:39:09;99158.00;;;19.80
65569;BMP180;52211;50.154;8.682;2023-03-23T01:41:40;99156.00;;;19.80
65569;BMP180;52211;50.154;8.682;2023-03-23T01:47:08;99137.00;;;19.80
65569;BMP180;52211;50.154;8.682;2023-03-23T01:49:46;99139.00;;;19.80
65569;BMP180;52211;50.154;8.682;2023-03-23T01:52:23;99145.00;;;19.80
65569;BMP180;52211;50.154;8.682;2023-03-23T01:54:58;99145.00;;;19.70
65569;BMP180;52211;50.154;8.682;2023-03-23T01:57:27;99148.00;;;19.70
65569;BMP180;52211;50.154;8.682;2023-03-23T02:00:04;99141.00;;;19.70
65569;BMP180;52211;50.154;8.682;2023-03-23T02:02:47;99145.00;;;19.70
65569;BMP180;52211;50.154;8.682;2023-03-23T02:05:38;99143.00;;;19.70
65569;BMP180;52211;50.154;8.682;2023-03-23T02:08:21;99146.00;;;19.70
65569;BMP180;52211;50.154;8.682;2023-03-23T02:10:56;99147.00;;;19.70
65569;BMP180;52211;50.154;8.682;2023-03-23T02:13:26;99145.00;;;19.70
65569;BMP180;52211;50.154;8.682;2023-03-23T02:16:15;99167.00;;;19.70
65569;BMP180;52211;50.154;8.682;2023-03-23T02:18:53;99158.00;;;19.70
65569;BMP180;52211;50.154;8.682;2023-03-23T02:24:51;99143.00;;;19.70
65569;BMP180;52211;50.154;8.682;2023-03-23T02:30:45;99143.00;;;19.60
65569;BMP180;52211;50.154;8.682;2023-03-23T02:33:28;99140.00;;;19.60
65569;BMP180;52211;50.154;8.682;2023-03-23T02:36:04;99134.00;;;19.60
65569;BMP180;52211;50.154;8.682;2023-03-23T02:38:43;99123.00;;;19.60
65569;BMP180;52211;50.154;8.682;2023-03-23T02:41:11;99130.00;;;19.60
65569;BMP180;52211;50.154;8.682;2023-03-23T02:43:44;99124.00;;;19.60
65569;BMP180;52211;50.154;8.682;2023-03-23T02:46:13;99137.00;;;19.60
65569;BMP180;52211;50.154;8.682;2023-03-23T02:48:44;99142.00;;;19.60
65569;BMP180;52211;50.154;8.682;2023-03-23T02:51:22;99139.00;;;19.60
65569;BMP180;52211;50.154;8.682;2023-03-23T02:53:53;99138.00;;;19.60
65569;BMP180;52211;50.154;8.682;2023-03-23T02:56:26;99130.00;;;19.60
65569;BMP180;52211;50.154;8.682;2023-03-23T02:58:55;99138.00;;;19.60
65569;BMP180;52211;50.154;8.682;2023-03-23T03:03:58;99124.00;;;19.40
65569;BMP180;52211;50.154;8.682;2023-03-23T03:06:34;99129.00;;;19.30
65569;BMP180;52211;50.154;8.682;2023-03-23T03:09:48;99130.00;;;19.20
65569;BMP180;52211;50.154;8.682;2023-03-23T03:12:32;99123.00;;;19.10
65569;BMP180;52211;50.154;8.682;2023-03-23T03:17:53;99117.00;;;18.90
65569;BMP180;52211;50.154;8.682;2023-03-23T03:20:22;99115.00;;;18.90
65569;BMP180;52211;50.154;8.682;2023-03-23T03:22:53;99107.00;;;18.80
65569;BMP180;52211;50.154;8.682;2023-03-23T03:25:28;99116.00;;;18.80
65569;BMP180;52211;50.154;8.682;2023-03-23T03:27:57;99111.00;;;18.80
65569;BMP180;52211;50.154;8.682;2023-03-23T03:30:37;99117.00;;;18.80
65569;BMP180;52211;50.154;8.682;2023-03-23T03:33:06;99117.00;;;18.80
65569;BMP180;52211;50.154;8.682;2023-03-23T03:35:37;99114.00;;;18.70
65569;BMP180;52211;50.154;8.682;2023-03-23T03:38:09;99114.00;;;18.70
65569;BMP180;52211;50.154;8.682;2023-03-23T03:40:41;99110.00;;;18.70
65569;BMP180;52211;50.154;8.682;2023-03-23T03:43:07;99119.00;;;18.60
65569;BMP180;52211;50.154;8.682;2023-03-23T03:45:33;99112.00;;;18.60
65569;BMP180;52211;50.154;8.682;2023-03-23T03:48:01;99132.00;;;18.50
65569;BMP180;52211;50.154;8.682;2023-03-23T03:50:28;99123.00;;;18.50
65569;BMP180;52211;50.154;8.682;2023-03-23T03:52:58;99130.00;;;18.50
65569;BMP180;52211;50.154;8.682;2023-03-23T03:55:24;99120.00;;;18.50
65569;BMP180;52211;50.154;8.682;2023-03-23T03:57:51;99129.00;;;18.50
65569;BMP180;52211;50.154;8.682;2023-03-23T04:00:22;99134.00;;;18.50
65569;BMP180;52211;50.154;8.682;2023-03-23T04:02:51;99131.00;;;18.50
65569;BMP180;52211;50.154;8.682;2023-03-23T04:05:46;99130.00;;;18.50
65569;BMP180;52211;50.154;8.682;2023-03-23T04:08:15;99127.00;;;18.50
65569;BMP180;52211;50.154;8.682;2023-03-23T04:10:44;99127.00;;;18.50
65569;BMP180;52211;50.154;8.682;2023-03-23T04:13:15;99126.00;;;18.40
65569;BMP180;52211;50.154;8.682;2023-03-23T04:16:05;99125.00;;;18.40
65569;BMP180;52211;50.154;8.682;2023-03-23T04:18:33;99119.00;;;18.40
65569;BMP180;52211;50.154;8.682;2023-03-23T04:21:09;99126.00;;;18.40
65569;BMP180;52211;50.154;8.682;2023-03-23T04:23:37;99118.00;;;18.40
65569;BMP180;52211;50.154;8.682;2023-03-23T04:26:05;99131.00;;;18.40
65569;BMP180;52211;50.154;8.682;2023-03-23T04:28:41;99134.00;;;18.50
65569;BMP180;52211;50.154;8.682;2023-03-23T04:31:23;99142.00;;;18.40
65569;BMP180;52211;50.154;8.682;2023-03-23T04:34:03;99139.00;;;18.40
65569;BMP180;52211;50.154;8.682;2023-03-23T04:36:39;99141.00;;;18.40
65569;BMP180;52211;50.154;8.682;2023-03-23T04:39:13;99146.00;;;18.40
65569;BMP180;52211;50.154;8.682;2023-03-23T04:41:45;99145.00;;;18.40
65569;BMP180;52211;50.154;8.682;2023-03-23T04:44:19;99140.00;;;18.40
65569;BMP180;52211;50.154;8.682;2023-03-23T04:47:05;99145.00;;;18.40
65569;BMP180;52211;50.154;8.682;2023-03-23T04:49:38;99151.00;;;18.40
65569;BMP180;52211;50.154;8.682;2023-03-23T04:52:24;99150.00;;;18.30
65569;BMP180;52211;50.154;8.682;2023-03-23T04:54:56;99153.00;;;18.30
65569;BMP180;52211;50.154;8.682;2023-03-23T04:57:25;99156.00;;;18.30
65569;BMP180;52211;50.154;8.682;2023-03-23T05:00:13;99150.00;;;18.30
65569;BMP180;52211;50.154;8.682;2023-03-23T05:02:50;99142.00;;;18.30
65569;BMP180;52211;50.154;8.682;2023-03-23T05:05:20;99134.00;;;18.40
65569;BMP180;52211;50.154;8.682;2023-03-23T05:07:48;99141.00;;;18.30
65569;BMP180;52211;50.154;8.682;2023-03-23T05:10:20;99147.00;;;18.30
65569;BMP180;52211;50.154;8.682;2023-03-23T05:12:48;99144.00;;;18.30
65569;BMP180;52211;50.154;8.682;2023-03-23T05:15:17;99148.00;;;18.30
65569;BMP180;52211;50.154;8.682;2023-03-23T05:17:44;99147.00;;;18.30
65569;BMP180;52211;50.154;8.682;2023-03-23T05:20:20;99152.00;;;18.30
65569;BMP180;52211;50.154;8.682;2023-03-23T05:22:51;99158.00;;;18.30
65569;BMP180;52211;50.154;8.682;2023-03-23T05:25:25;99152.00;;;18.20
65569;BMP180;52211;50.154;8.682;2023-03-23T05:28:03;99147.00;;;18.20
65569;BMP180;52211;50.154;8.682;2023-03-23T05:30:50;99152.00;;;18.20
65569;BMP180;52211;50.154;8.682;2023-03-23T05:33:22;99157.00;;;18.20
65569;BMP180;52211;50.154;8.682;2023-03-23T05:36:00;99150.00;;;18.10
65569;BMP180;52211;50.154;8.682;2023-03-23T05:38:41;99155.00;;;18.10
65569;BMP180;52211;50.154;8.682;2023-03-23T05:41:15;99157.00;;;18.10
65569;BMP180;52211;50.154;8.682;2023-03-23T05:43:43;99144.00;;;18.10
65569;BMP180;52211;50.154;8.682;2023-03-23T05:46:26;99151.00;;;18.10
65569;BMP180;52211;50.154;8.682;2023-03-23T05:48:55;99156.00;;;18.10
65569;BMP180;52211;50.154;8.682;2023-03-23T05:51:31;99160.00;;;18.10
65569;BMP180;52211;50.154;8.682;2023-03-23T05:53:57;99161.00;;;18.00
65569;BMP180;52211;50.154;8.682;2023-03-23T05:56:26;99157.00;;;18.00
65569;BMP180;52211;50.154;8.682;2023-03-23T05:59:03;99163.00;;;18.00
65569;BMP180;52211;50.154;8.682;2023-03-23T06:01:36;99171.00;;;18.00
65569;BMP180;52211;50.154;8.682;2023-03-23T06:04:03;99184.00;;;18.00
65569;BMP180;52211;50.154;8.682;2023-03-23T06:06:47;99191.00;;;18.00
65569;BMP180;52211;50.154;8.682;2023-03-23T06:09:21;99182.00;;;18.00
65569;BMP180;52211;50.154;8.682;2023-03-23T06:12:04;99176.00;;;17.90
65569;BMP180;52211;50.154;8.682;2023-03-23T06:14:55;99190.00;;;17.90
65569;BMP180;52211;50.154;8.682;2023-03-23T06:17:33;99182.00;;;17.90
65569;BMP180;52211;50.154;8.682;2023-03-23T06:20:05;99192.00;;;17.90
65569;BMP180;52211;50.154;8.682;2023-03-23T06:22:37;99184.00;;;17.90
65569;BMP180;52211;50.154;8.682;2023-03-23T06:25:18;99194.00;;;17.90
65569;BMP180;52211;50.154;8.682;2023-03-23T06:27:44;99194.00;;;17.90
65569;BMP180;52211;50.154;8.682;2023-03-23T06:30:15;99191.00;;;17.90
65569;BMP180;52211;50.154;8.682;2023-03-23T06:32:43;99192.00;;;17.90
65569;BMP180;52211;50.154;8.682;2023-03-23T06:35:15;99187.00;;;17.90
65569;BMP180;52211;50.154;8.682;2023-03-23T06:38:10;99200.00;;;17.90
65569;BMP180;52211;50.154;8.682;2023-03-23T06:40:53;99197.00;;;17.90
65569;BMP180;52211;50.154;8.682;2023-03-23T06:43:26;99196.00;;;17.90
65569;BMP180;52211;50.154;8.682;2023-03-23T06:46:04;99191.00;;;17.90
65569;BMP180;52211;50.154;8.682;2023-03-23T06:48:58;99185.00;;;17.90
65569;BMP180;52211;50.154;8.682;2023-03-23T06:51:36;99200.00;;;17.90
65569;BMP180;52211;50.154;8.682;2023-03-23T06:54:05;99210.00;;;17.90
65569;BMP180;52211;50.154;8.682;2023-03-23T06:56:38;99212.00;;;17.90
65569;BMP180;52211;50.154;8.682;2023-03-23T06:59:04;99208.00;;;17.90
65569;BMP180;52211;50.154;8.682;2023-03-23T07:01:30;99208.00;;;17.90
65569;BMP180;52211;50.154;8.682;2023-03-23T07:04:01;99198.00;;;17.90
65569;BMP180;52211;50.154;8.682;2023-03-23T07:06:39;99202.00;;;18.00
65569;BMP180;52211;50.154;8.682;2023-03-23T07:09:08;99200.00;;;18.00
65569;BMP180;52211;50.154;8.682;2023-03-23T07:11:39;99201.00;;;18.00
65569;BMP180;52211;50.154;8.682;2023-03-23T07:14:18;99205.00;;;18.00
65569;BMP180;52211;50.154;8.682;2023-03-23T07:16:45;99217.00;;;18.00
65569;BMP180;52211;50.154;8.682;2023-03-23T07:19:12;99215.00;;;18.00
65569;BMP180;52211;50.154;8.682;2023-03-23T07:21:41;99216.00;;;18.00
65569;BMP180;52211;50.154;8.682;2023-03-23T07:24:15;99230.00;;;18.00
65569;BMP180;52211;50.154;8.682;2023-03-23T07:27:06;99228.00;;;17.90
65569;BMP180;52211;50.154;8.682;2023-03-23T07:29:36;99216.00;;;17.90
65569;BMP180;52211;50.154;8.682;2023-03-23T07:32:11;99227.00;;;17.90
65569;BMP180;52211;50.154;8.682;2023-03-23T07:34:41;99231.00;;;17.90
65569;BMP180;52211;50.154;8.682;2023-03-23T07:37:21;99236.00;;;17.80
65569;BMP180;52211;50.154;8.682;2023-03-23T07:39:49;99234.00;;;17.80
65569;BMP180;52211;50.154;8.682;2023-03-23T07:42:15;99237.00;;;17.80
65569;BMP180;52211;50.154;8.682;2023-03-23T07:44:49;99235.00;;;17.80
65569;BMP180;52211;50.154;8.682;2023-03-23T07:47:18;99216.00;;;17.80
65569;BMP180;52211;50.154;8.682;2023-03-23T07:49:49;99232.00;;;17.80
65569;BMP180;52211;50.154;8.682;2023-03-23T07:52:36;99238.00;;;17.80
65569;BMP180;52211;50.154;8.682;2023-03-23T07:55:11;99245.00;;;17.80
65569;BMP180;52211;50.154;8.682;2023-03-23T07:58:03;99242.00;;;17.80
65569;BMP180;52211;50.154;8.682;2023-03-23T08:00:34;99253.00;;;17.80
65569;BMP180;52211;50.154;8.682;2023-03-23T08:03:08;99239.00;;;17.80
65569;BMP180;52211;50.154;8.682;2023-03-23T08:05:47;99250.00;;;17.90
65569;BMP180;52211;50.154;8.682;2023-03-23T08:08:20;99251.00;;;17.90
65569;BMP180;52211;50.154;8.682;2023-03-23T08:11:18;99252.00;;;17.90
65569;BMP180;52211;50.154;8.682;2023-03-23T08:14:03;99260.00;;;17.90
65569;BMP180;52211;50.154;8.682;2023-03-23T08:16:34;99254.00;;;17.90
65569;BMP180;52211;50.154;8.682;2023-03-23T08:19:11;99277.00;;;17.90
65569;BMP180;52211;50.154;8.682;2023-03-23T08:21:58;99278.00;;;17.90
65569;BMP180;52211;50.154;8.682;2023-03-23T08:24:35;99264.00;;;17.80
65569;BMP180;52211;50.154;8.682;2023-03-23T08:27:13;99259.00;;;17.90
65569;BMP180;52211;50.154;8.682;2023-03-23T08:30:00;99261.00;;;17.90
65569;BMP180;52211;50.154;8.682;2023-03-23T08:32:45;99271.00;;;17.90
65569;BMP180;52211;50.154;8.682;2023-03-23T08:35:23;99270.00;;;17.80
65569;BMP180;52211;50.154;8.682;2023-03-23T08:37:58;99271.00;;;17.90
65569;BMP180;52211;50.154;8.682;2023-03-23T08:41:05;99266.00;;;17.90
65569;BMP180;52211;50.154;8.682;2023-03-23T08:43:50;99279.00;;;17.90
65569;BMP180;52211;50.154;8.682;2023-03-23T08:46:38;99283.00;;;17.90
65569;BMP180;52211;50.154;8.682;2023-03-23T08:49:23;99292.00;;;17.90
65569;BMP180;52211;50.154;8.682;2023-03-23T08:52:14;99296.00;;;17.90
65569;BMP180;52211;50.154;8.682;2023-03-23T08:55:00;99282.00;;;18.00
65569;BMP180;52211;50.154;8.682;2023-03-23T08:57:35;99288.00;;;18.00
65569;BMP180;52211;50.154;8.682;2023-03-23T09:00:21;99284.00;;;18.00
65569;BMP180;52211;50.154;8.682;2023-03-23T09:03:10;99277.00;;;18.10
65569;BMP180;52211;50.154;8.682;2023-03-23T09:06:03;99268.00;;;18.10
65569;BMP180;52211;50.154;8.682;2023-03-23T09:08:39;99281.00;;;18.10
65569;BMP180;52211;50.154;8.682;2023-03-23T09:11:08;99277.00;;;18.10
65569;BMP180;52211;50.154;8.682;2023-03-23T09:13:41;99277.00;;;18.20
65569;BMP180;52211;50.154;8.682;2023-03-23T09:16:10;99263.00;;;18.20
65569;BMP180;52211;50.154;8.682;2023-03-23T09:18:38;99275.00;;;18.20
65569;BMP180;52211;50.154;8.682;2023-03-23T09:21:06;99275.00;;;18.20
65569;BMP180;52211;50.154;8.682;2023-03-23T09:23:38;99280.00;;;18.20
65569;BMP180;52211;50.154;8.682;2023-03-23T09:26:05;99300.00;;;18.30
65569;BMP180;52211;50.154;8.682;2023-03-23T09:28:30;99291.00;;;18.30
65569;BMP180;52211;50.154;8.682;2023-03-23T09:30:57;99276.00;;;18.30
65569;BMP180;52211;50.154;8.682;2023-03-23T09:33:27;99281.00;;;18.40
65569;BMP180;52211;50.154;8.682;2023-03-23T09:35:54;99289.00;;;18.40
65569;BMP180;52211;50.154;8.682;2023-03-23T09:38:20;99290.00;;;18.50
65569;BMP180;52211;50.154;8.682;2023-03-23T09:40:56;99284.00;;;18.50
65569;BMP180;52211;50.154;8.682;2023-03-23T09:43:46;99280.00;;;18.60
65569;BMP180;52211;50.154;8.682;2023-03-23T09:49:34;99288.00;;;18.70
65569;BMP180;52211;50.154;8.682;2023-03-23T09:52:13;99293.00;;;18.80
65569;BMP180;52211;50.154;8.682;2023-03-23T09:54:49;99289.00;;;18.90
65569;BMP180;52211;50.154;8.682;2023-03-23T09:57:39;99285.00;;;19.00
65569;BMP180;52211;50.154;8.682;2023-03-23T10:00:15;99286.00;;;19.10
65569;BMP180;52211;50.154;8.682;2023-03-23T10:05:50;99289.00;;;19.20
65569;BMP180;52211;50.154;8.682;2023-03-23T10:08:20;99296.00;;;19.20
65569;BMP180;52211;50.154;8.682;2023-03-23T10:16:40;99300.00;;;19.30
65569;BMP180;52211;50.154;8.682;2023-03-23T10:19:20;99314.00;;;19.20
65569;BMP180;52211;50.154;8.682;2023-03-23T10:21:59;99318.00;;;19.20
65569;BMP180;52211;50.154;8.682;2023-03-23T10:25:21;99320.00;;;19.20
65569;BMP180;52211;50.154;8.682;2023-03-23T10:28:10;99318.00;;;19.20
65569;BMP180;52211;50.154;8.682;2023-03-23T10:30:44;99332.00;;;19.20
65569;BMP180;52211;50.154;8.682;2023-03-23T10:33:39;99348.00;;;19.10
65569;BMP180;52211;50.154;8.682;2023-03-23T10:38:52;99346.00;;;19.10
65569;BMP180;52211;50.154;8.682;2023-03-23T10:41:21;99330.00;;;19.10
65569;BMP180;52211;50.154;8.682;2023-03-23T10:43:50;99335.00;;;19.10
65569;BMP180;52211;50.154;8.682;2023-03-23T10:49:30;99323.00;;;19.10
65569;BMP180;52211;50.154;8.682;2023-03-23T10:57:30;99327.00;;;19.20
65569;BMP180;52211;50.154;8.682;2023-03-23T11:03:01;99347.00;;;19.20
65569;BMP180;52211;50.154;8.682;2023-03-23T11:05:41;99328.00;;;19.10
65569;BMP180;52211;50.154;8.682;2023-03-23T11:08:19;99327.00;;;19.20
65569;BMP180;52211;50.154;8.682;2023-03-23T11:11:07;99328.00;;;19.20
65569;BMP180;52211;50.154;8.682;2023-03-23T11:13:42;99328.00;;;19.20
65569;BMP180;52211;50.154;8.682;2023-03-23T11:16:27;99322.00;;;19.20
65569;BMP180;52211;50.154;8.682;2023-03-23T11:19:11;99333.00;;;19.30
65569;BMP180;52211;50.154;8.682;2023-03-23T11:21:39;99326.00;;;19.30
65569;BMP180;52211;50.154;8.682;2023-03-23T11:24:05;99339.00;;;19.30
65569;BMP180;52211;50.154;8.682;2023-03-23T11:26:35;99340.00;;;19.30
65569;BMP180;52211;50.154;8.682;2023-03-23T11:29:21;99335.00;;;19.40
65569;BMP180;52211;50.154;8.682;2023-03-23T11:34:40;99326.00;;;19.50
65569;BMP180;52211;50.154;8.682;2023-03-23T11:37:40;99311.00;;;19.50
65569;BMP180;52211;50.154;8.682;2023-03-23T11:40:20;99320.00;;;19.60
65569;BMP180;52211;50.154;8.682;2023-03-23T11:43:12;99317.00;;;19.80
65569;BMP180;52211;50.154;8.682;2023-03-23T11:48:39;99328.00;;;19.90
65569;BMP180;52211;50.154;8.682;2023-03-23T11:51:39;99325.00;;;19.90
65569;BMP180;52211;50.154;8.682;2023-03-23T11:54:34;99324.00;;;19.90
65569;BMP180;52211;50.154;8.682;2023-03-23T11:57:07;99326.00;;;20.00
65569;BMP180;52211;50.154;8.682;2023-03-23T11:59:35;99320.00;;;20.10
65569;BMP180;52211;50.154;8.682;2023-03-23T12:02:32;99332.00;;;20.10
65569;BMP180;52211;50.154;8.682;2023-03-23T12:16:35;99313.00;;;20.40
65569;BMP180;52211;50.154;8.682;2023-03-23T12:31:13;99287.00;;;20.40
65569;BMP180;52211;50.154;8.682;2023-03-23T12:34:33;99278.00;;;20.30
65569;BMP180;52211;50.154;8.682;2023-03-23T12:37:43;99282.00;;;20.30
65569;BMP180;52211;50.154;8.682;2023-03-23T12:43:27;99258.00;;;20.40
65569;BMP180;52211;50.154;8.682;2023-03-23T12:57:24;99265.00;;;20.60
65569;BMP180;52211;50.154;8.682;2023-03-23T13:00:17;99270.00;;;20.60
65569;BMP180;52211;50.154;8.682;2023-03-23T13:03:14;99267.00;;;20.60
65569;BMP180;52211;50.154;8.682;2023-03-23T13:08:52;99289.00;;;20.60
65569;BMP180;52211;50.154;8.682;2023-03-23T13:11:37;99299.00;;;20.50
65569;BMP180;52211;50.154;8.682;2023-03-23T13:28:25;99253.00;;;20.60
65569;BMP180;52211;50.154;8.682;2023-03-23T13:31:03;99250.00;;;20.70
65569;BMP180;52211;50.154;8.682;2023-03-23T13:33:35;99268.00;;;20.70
65569;BMP180;52211;50.154;8.682;2023-03-23T13:36:13;99254.00;;;20.80
65569;BMP180;52211;50.154;8.682;2023-03-23T13:38:50;99258.00;;;21.00
65569;BMP180;52211;50.154;8.682;2023-03-23T13:41:21;99254.00;;;21.10
65569;BMP180;52211;50.154;8.682;2023-03-23T13:43:48;99258.00;;;21.30
65569;BMP180;52211;50.154;8.682;2023-03-23T13:56:48;99262.00;;;21.50
65569;BMP180;52211;50.154;8.682;2023-03-23T14:01:54;99246.00;;;21.40
65569;BMP180;52211;50.154;8.682;2023-03-23T14:04:23;99251.00;;;21.40
65569;BMP180;52211;50.154;8.682;2023-03-23T14:06:57;99259.00;;;21.30
65569;BMP180;52211;50.154;8.682;2023-03-23T14:09:39;99246.00;;;21.20
65569;BMP180;52211;50.154;8.682;2023-03-23T14:12:17;99247.00;;;21.10
65569;BMP180;52211;50.154;8.682;2023-03-23T14:14:51;99255.00;;;21.00
65569;BMP180;52211;50.154;8.682;2023-03-23T14:17:42;99251.00;;;20.90
65569;BMP180;52211;50.154;8.682;2023-03-23T14:20:31;99259.00;;;20.80
65569;BMP180;52211;50.154;8.682;2023-03-23T14:23:00;99256.00;;;20.70
65569;BMP180;52211;50.154;8.682;2023-03-23T14:25:30;99260.00;;;20.70
65569;BMP180;52211;50.154;8.682;2023-03-23T14:27:58;99276.00;;;20.60
65569;BMP180;52211;50.154;8.682;2023-03-23T14:30:34;99270.00;;;20.60
65569;BMP180;52211;50.154;8.682;2023-03-23T14:33:06;99263.00;;;20.50
65569;BMP180;52211;50.154;8.682;2023-03-23T14:35:37;99268.00;;;20.40
65569;BMP180;52211;50.154;8.682;2023-03-23T14:38:20;99258.00;;;20.40
65569;BMP180;52211;50.154;8.682;2023-03-23T14:40:50;99268.00;;;20.30
65569;BMP180;52211;50.154;8.682;2023-03-23T14:43:19;99268.00;;;20.30
65569;BMP180;52211;50.154;8.682;2023-03-23T14:45:54;99252.00;;;20.20
65569;BMP180;52211;50.154;8.682;2023-03-23T14:48:26;99258.00;;;20.20
65569;BMP180;52211;50.154;8.682;2023-03-23T14:50:59;99257.00;;;20.20
65569;BMP180;52211;50.154;8.682;2023-03-23T14:53:42;99266.00;;;20.20
65569;BMP180;52211;50.154;8.682;2023-03-23T14:56:22;99269.00;;;20.20
65569;BMP180;52211;50.154;8.682;2023-03-23T14:58:52;99259.00;;;20.20
65569;BMP180;52211;50.154;8.682;2023-03-23T15:01:19;99254.00;;;20.20
65569;BMP180;52211;50.154;8.682;2023-03-23T15:04:11;99263.00;;;20.20
65569;BMP180;52211;50.154;8.682;2023-03-23T15:06:42;99267.00;;;20.20
65569;BMP180;52211;50.154;8.682;2023-03-23T15:09:22;99262.00;;;20.20
65569;BMP180;52211;50.154;8.682;2023-03-23T15:11:58;99252.00;;;20.20
65569;BMP180;52211;50.154;8.682;2023-03-23T15:15:00;99249.00;;;20.30
65569;BMP180;52211;50.154;8.682;2023-03-23T15:17:31;99246.00;;;20.40
65569;BMP180;52211;50.154;8.682;2023-03-23T15:20:28;99247.00;;;20.40
65569;BMP180;52211;50.154;8.682;2023-03-23T15:23:04;99255.00;;;20.50
65569;BMP180;52211;50.154;8.682;2023-03-23T15:25:36;99242.00;;;20.50
65569;BMP180;52211;50.154;8.682;2023-03-23T15:28:19;99240.00;;;20.50
65569;BMP180;52211;50.154;8.682;2023-03-23T15:30:55;99268.00;;;20.50
65569;BMP180;52211;50.154;8.682;2023-03-23T15:33:26;99249.00;;;20.50
65569;BMP180;52211;50.154;8.682;2023-03-23T15:35:57;99238.00;;;20.50
65569;BMP180;52211;50.154;8.682;2023-03-23T15:38:35;99237.00;;;20.50
65569;BMP180;52211;50.154;8.682;2023-03-23T15:41:27;99257.00;;;20.50
65569;BMP180;52211;50.154;8.682;2023-03-23T15:44:08;99247.00;;;20.60
65569;BMP180;52211;50.154;8.682;2023-03-23T15:46:49;99243.00;;;20.60
65569;BMP180;52211;50.154;8.682;2023-03-23T15:49:18;99249.00;;;20.60
65569;BMP180;52211;50.154;8.682;2023-03-23T15:51:45;99255.00;;;20.60
65569;BMP180;52211;50.154;8.682;2023-03-23T15:54:16;99250.00;;;20.60
65569;BMP180;52211;50.154;8.682;2023-03-23T15:56:45;99256.00;;;20.50
65569;BMP180;52211;50.154;8.682;2023-03-23T15:59:14;99251.00;;;20.50
65569;BMP180;52211;50.154;8.682;2023-03-23T16:01:45;99253.00;;;20.50
65569;BMP180;52211;50.154;8.682;2023-03-23T16:04:17;99248.00;;;20.50
65569;BMP180;52211;50.154;8.682;2023-03-23T16:06:55;99260.00;;;20.50
65569;BMP180;52211;50.154;8.682;2023-03-23T16:09:22;99268.00;;;20.50
65569;BMP180;52211;50.154;8.682;2023-03-23T16:11:54;99257.00;;;20.50
65569;BMP180;52211;50.154;8.682;2023-03-23T16:14:24;99267.00;;;20.50
65569;BMP180;52211;50.154;8.682;2023-03-23T16:16:53;99263.00;;;20.50
65569;BMP180;52211;50.154;8.682;2023-03-23T16:19:22;99256.00;;;20.50
65569;BMP180;52211;50.154;8.682;2023-03-23T16:21:50;99266.00;;;20.50
65569;BMP180;52211;50.154;8.682;2023-03-23T16:24:18;99275.00;;;20.40
65569;BMP180;52211;50.154;8.682;2023-03-23T16:26:50;99271.00;;;20.40
65569;BMP180;52211;50.154;8.682;2023-03-23T16:29:17;99272.00;;;20.40
65569;BMP180;52211;50.154;8.682;2023-03-23T16:32:04;99261.00;;;20.30
65569;BMP180;52211;50.154;8.682;2023-03-23T16:34:36;99264.00;;;20.30
65569;BMP180;52211;50.154;8.682;2023-03-23T16:37:04;99276.00;;;20.20
65569;BMP180;52211;50.154;8.682;2023-03-23T16:39:32;99269.00;;;20.20
65569;BMP180;52211;50.154;8.682;2023-03-23T16:41:59;99280.00;;;20.10
65569;BMP180;52211;50.154;8.682;2023-03-23T16:44:28;99278.00;;;20.00
65569;BMP180;52211;50.154;8.682;2023-03-23T16:46:57;99265.00;;;20.00
65569;BMP180;52211;50.154;8.682;2023-03-23T16:49:24;99265.00;;;20.00
65569;BMP180;52211;50.154;8.682;2023-03-23T16:51:53;99264.00;;;19.90